sensor_id;sensor_type;location;lat;lon;timestamp;P1;durP1;ratioP1;P2;durP2;ratioP2
10212;SDS011;5150;51.400;6.692;2022-08-19T00:00:35;6.82;;;6.28;;
10212;SDS011;5150;51.400;6.692;2022-08-19T00:03:59;6.65;;;6.25;;
10212;SDS011;5150;51.400;6.692;2022-08-19T00:07:24;6.47;;;5.97;;
10212;SDS011;5150;51.400;6.692;2022-08-19T00:10:47;6.63;;;6.07;;
10212;SDS011;5150;51.400;6.692;2022-08-19T00:14:10;6.53;;;6.10;;
10212;SDS011;5150;51.400;6.692;2022-08-19T00:17:35;6.68;;;6.18;;
10212;SDS011;5150;51.400;6.692;2022-08-19T00:21:02;6.63;;;6.20;;
10212;SDS011;5150;51.400;6.692;2022-08-19T00:24:29;6.03;;;5.63;;
10212;SDS011;5150;51.400;6.692;2022-08-19T00:27:53;6.47;;;6.07;;
10212;SDS011;5150;51.400;6.692;2022-08-19T00:31:17;6.35;;;5.90;;
10212;SDS011;5150;51.400;6.692;2022-08-19T00:34:41;6.20;;;5.80;;
10212;SDS011;5150;51.400;6.692;2022-08-19T00:38:04;6.95;;;6.35;;
10212;SDS011;5150;51.400;6.692;2022-08-19T00:41:27;6.15;;;5.65;;
10212;SDS011;5150;51.400;6.692;2022-08-19T00:44:50;6.18;;;5.68;;
10212;SDS011;5150;51.400;6.692;2022-08-19T00:48:13;6.50;;;6.10;;
10212;SDS011;5150;51.400;6.692;2022-08-19T00:51:38;6.97;;;6.47;;
10212;SDS011;5150;51.400;6.692;2022-08-19T00:55:03;7.18;;;6.57;;
10212;SDS011;5150;51.400;6.692;2022-08-19T00:58:32;6.60;;;6.13;;
10212;SDS011;5150;51.400;6.692;2022-08-19T01:01:57;6.88;;;6.38;;
10212;SDS011;5150;51.400;6.692;2022-08-19T01:05:21;6.07;;;5.65;;
10212;SDS011;5150;51.400;6.692;2022-08-19T01:08:49;6.75;;;6.25;;
10212;SDS011;5150;51.400;6.692;2022-08-19T01:12:13;7.07;;;6.50;;
10212;SDS011;5150;51.400;6.692;2022-08-19T01:15:38;6.15;;;5.75;;
10212;SDS011;5150;51.400;6.692;2022-08-19T01:19:07;6.50;;;6.10;;
10212;SDS011;5150;51.400;6.692;2022-08-19T01:22:36;6.60;;;6.20;;
10212;SDS011;5150;51.400;6.692;2022-08-19T01:26:04;7.35;;;6.85;;
10212;SDS011;5150;51.400;6.692;2022-08-19T01:29:28;7.18;;;6.47;;
10212;SDS011;5150;51.400;6.692;2022-08-19T01:32:52;6.25;;;5.85;;
10212;SDS011;5150;51.400;6.692;2022-08-19T01:36:16;6.85;;;6.35;;
10212;SDS011;5150;51.400;6.692;2022-08-19T01:39:48;7.38;;;6.80;;
10212;SDS011;5150;51.400;6.692;2022-08-19T01:43:11;6.68;;;6.18;;
10212;SDS011;5150;51.400;6.692;2022-08-19T01:46:35;6.63;;;6.22;;
10212;SDS011;5150;51.400;6.692;2022-08-19T01:49:58;6.70;;;6.20;;
10212;SDS011;5150;51.400;6.692;2022-08-19T01:53:21;6.90;;;6.43;;
10212;SDS011;5150;51.400;6.692;2022-08-19T01:56:52;7.28;;;6.68;;
10212;SDS011;5150;51.400;6.692;2022-08-19T02:00:18;6.85;;;6.35;;
10212;SDS011;5150;51.400;6.692;2022-08-19T02:03:43;6.60;;;6.20;;
10212;SDS011;5150;51.400;6.692;2022-08-19T02:07:07;6.95;;;6.45;;
10212;SDS011;5150;51.400;6.692;2022-08-19T02:10:30;7.97;;;7.25;;
10212;SDS011;5150;51.400;6.692;2022-08-19T02:13:55;6.65;;;6.25;;
10212;SDS011;5150;51.400;6.692;2022-08-19T02:17:18;7.40;;;6.68;;
10212;SDS011;5150;51.400;6.692;2022-08-19T02:20:42;7.72;;;7.07;;
10212;SDS011;5150;51.400;6.692;2022-08-19T02:24:06;8.43;;;7.72;;
10212;SDS011;5150;51.400;6.692;2022-08-19T02:27:29;7.57;;;6.95;;
10212;SDS011;5150;51.400;6.692;2022-08-19T02:30:55;7.57;;;7.00;;
10212;SDS011;5150;51.400;6.692;2022-08-19T02:34:22;7.53;;;6.93;;
10212;SDS011;5150;51.400;6.692;2022-08-19T02:37:46;8.10;;;7.47;;
10212;SDS011;5150;51.400;6.692;2022-08-19T02:41:27;8.48;;;7.78;;
10212;SDS011;5150;51.400;6.692;2022-08-19T02:44:52;7.30;;;6.72;;
10212;SDS011;5150;51.400;6.692;2022-08-19T02:48:19;8.00;;;7.45;;
10212;SDS011;5150;51.400;6.692;2022-08-19T02:51:44;7.53;;;7.03;;
10212;SDS011;5150;51.400;6.692;2022-08-19T02:55:08;7.38;;;6.88;;
10212;SDS011;5150;51.400;6.692;2022-08-19T02:58:31;7.88;;;7.07;;
10212;SDS011;5150;51.400;6.692;2022-08-19T03:01:54;7.88;;;7.32;;
10212;SDS011;5150;51.400;6.692;2022-08-19T03:05:19;7.53;;;6.93;;
10212;SDS011;5150;51.400;6.692;2022-08-19T03:09:02;7.72;;;7.15;;
10212;SDS011;5150;51.400;6.692;2022-08-19T03:12:25;8.27;;;7.60;;
10212;SDS011;5150;51.400;6.692;2022-08-19T03:15:48;8.38;;;7.65;;
10212;SDS011;5150;51.400;6.692;2022-08-19T03:19:12;7.53;;;6.88;;
10212;SDS011;5150;51.400;6.692;2022-08-19T03:22:37;8.82;;;8.13;;
10212;SDS011;5150;51.400;6.692;2022-08-19T03:26:02;8.43;;;7.82;;
10212;SDS011;5150;51.400;6.692;2022-08-19T03:29:37;7.65;;;7.15;;
10212;SDS011;5150;51.400;6.692;2022-08-19T03:33:03;8.65;;;8.05;;
10212;SDS011;5150;51.400;6.692;2022-08-19T03:36:28;7.93;;;7.32;;
10212;SDS011;5150;51.400;6.692;2022-08-19T03:39:53;8.85;;;8.13;;
10212;SDS011;5150;51.400;6.692;2022-08-19T03:43:16;8.05;;;7.40;;
10212;SDS011;5150;51.400;6.692;2022-08-19T03:46:40;8.25;;;7.65;;
10212;SDS011;5150;51.400;6.692;2022-08-19T03:50:05;9.10;;;8.25;;
10212;SDS011;5150;51.400;6.692;2022-08-19T03:53:30;8.70;;;7.55;;
10212;SDS011;5150;51.400;6.692;2022-08-19T03:56:56;7.70;;;7.10;;
10212;SDS011;5150;51.400;6.692;2022-08-19T04:00:20;7.95;;;7.28;;
10212;SDS011;5150;51.400;6.692;2022-08-19T04:03:43;9.23;;;8.38;;
10212;SDS011;5150;51.400;6.692;2022-08-19T04:07:07;8.30;;;7.63;;
10212;SDS011;5150;51.400;6.692;2022-08-19T04:10:31;7.43;;;6.93;;
10212;SDS011;5150;51.400;6.692;2022-08-19T04:13:58;8.68;;;7.88;;
10212;SDS011;5150;51.400;6.692;2022-08-19T04:17:24;8.73;;;7.07;;
10212;SDS011;5150;51.400;6.692;2022-08-19T04:20:47;8.85;;;8.05;;
10212;SDS011;5150;51.400;6.692;2022-08-19T04:24:11;8.85;;;8.02;;
10212;SDS011;5150;51.400;6.692;2022-08-19T04:27:34;7.88;;;7.28;;
10212;SDS011;5150;51.400;6.692;2022-08-19T04:30:59;8.60;;;7.88;;
10212;SDS011;5150;51.400;6.692;2022-08-19T04:34:23;8.07;;;7.38;;
10212;SDS011;5150;51.400;6.692;2022-08-19T04:37:47;9.13;;;8.18;;
10212;SDS011;5150;51.400;6.692;2022-08-19T04:41:10;8.75;;;7.68;;
10212;SDS011;5150;51.400;6.692;2022-08-19T04:44:50;26.02;;;12.55;;
10212;SDS011;5150;51.400;6.692;2022-08-19T04:48:16;19.02;;;9.35;;
10212;SDS011;5150;51.400;6.692;2022-08-19T04:51:48;11.07;;;8.13;;
10212;SDS011;5150;51.400;6.692;2022-08-19T04:55:13;9.55;;;8.23;;
10212;SDS011;5150;51.400;6.692;2022-08-19T04:58:36;8.75;;;8.05;;
10212;SDS011;5150;51.400;6.692;2022-08-19T05:02:03;11.65;;;8.90;;
10212;SDS011;5150;51.400;6.692;2022-08-19T05:05:28;10.57;;;8.45;;
10212;SDS011;5150;51.400;6.692;2022-08-19T05:09:05;10.52;;;9.57;;
10212;SDS011;5150;51.400;6.692;2022-08-19T05:12:28;9.40;;;8.50;;
10212;SDS011;5150;51.400;6.692;2022-08-19T05:15:53;16.60;;;9.77;;
10212;SDS011;5150;51.400;6.692;2022-08-19T05:19:17;17.92;;;10.63;;
10212;SDS011;5150;51.400;6.692;2022-08-19T05:22:59;14.25;;;10.40;;
10212;SDS011;5150;51.400;6.692;2022-08-19T05:26:33;12.40;;;10.95;;
10212;SDS011;5150;51.400;6.692;2022-08-19T05:29:56;13.05;;;11.60;;
10212;SDS011;5150;51.400;6.692;2022-08-19T05:33:20;12.50;;;11.43;;
10212;SDS011;5150;51.400;6.692;2022-08-19T05:36:44;13.80;;;10.90;;
10212;SDS011;5150;51.400;6.692;2022-08-19T05:40:09;12.57;;;11.50;;
10212;SDS011;5150;51.400;6.692;2022-08-19T05:43:32;12.93;;;11.63;;
10212;SDS011;5150;51.400;6.692;2022-08-19T05:46:55;15.23;;;13.73;;
10212;SDS011;5150;51.400;6.692;2022-08-19T05:50:19;16.25;;;13.50;;
10212;SDS011;5150;51.400;6.692;2022-08-19T05:53:42;15.25;;;13.85;;
10212;SDS011;5150;51.400;6.692;2022-08-19T05:57:07;20.98;;;16.02;;
10212;SDS011;5150;51.400;6.692;2022-08-19T06:00:33;20.42;;;17.52;;
10212;SDS011;5150;51.400;6.692;2022-08-19T06:03:57;20.63;;;15.90;;
10212;SDS011;5150;51.400;6.692;2022-08-19T06:07:20;20.75;;;14.82;;
10212;SDS011;5150;51.400;6.692;2022-08-19T06:10:44;19.20;;;15.68;;
10212;SDS011;5150;51.400;6.692;2022-08-19T06:14:09;17.08;;;15.02;;
10212;SDS011;5150;51.400;6.692;2022-08-19T06:17:37;17.98;;;15.63;;
10212;SDS011;5150;51.400;6.692;2022-08-19T06:21:00;30.88;;;27.50;;
10212;SDS011;5150;51.400;6.692;2022-08-19T06:24:25;22.20;;;19.95;;
10212;SDS011;5150;51.400;6.692;2022-08-19T06:27:50;27.10;;;24.30;;
10212;SDS011;5150;51.400;6.692;2022-08-19T06:31:35;35.35;;;31.83;;
10212;SDS011;5150;51.400;6.692;2022-08-19T06:34:59;25.02;;;22.33;;
10212;SDS011;5150;51.400;6.692;2022-08-19T06:38:22;38.33;;;34.10;;
10212;SDS011;5150;51.400;6.692;2022-08-19T06:41:46;25.85;;;23.38;;
10212;SDS011;5150;51.400;6.692;2022-08-19T06:45:14;31.30;;;28.15;;
10212;SDS011;5150;51.400;6.692;2022-08-19T06:48:46;24.15;;;21.05;;
10212;SDS011;5150;51.400;6.692;2022-08-19T06:52:10;19.85;;;18.05;;
10212;SDS011;5150;51.400;6.692;2022-08-19T06:55:35;27.25;;;24.65;;
10212;SDS011;5150;51.400;6.692;2022-08-19T06:58:59;29.23;;;24.70;;
10212;SDS011;5150;51.400;6.692;2022-08-19T07:02:22;26.00;;;23.52;;
10212;SDS011;5150;51.400;6.692;2022-08-19T07:05:48;29.98;;;26.83;;
10212;SDS011;5150;51.400;6.692;2022-08-19T07:09:12;25.40;;;22.77;;
10212;SDS011;5150;51.400;6.692;2022-08-19T07:12:39;29.85;;;26.95;;
10212;SDS011;5150;51.400;6.692;2022-08-19T07:16:03;34.22;;;25.50;;
10212;SDS011;5150;51.400;6.692;2022-08-19T07:19:27;35.28;;;22.73;;
10212;SDS011;5150;51.400;6.692;2022-08-19T07:22:54;26.17;;;19.98;;
10212;SDS011;5150;51.400;6.692;2022-08-19T07:26:22;31.90;;;19.38;;
10212;SDS011;5150;51.400;6.692;2022-08-19T07:29:48;31.70;;;24.98;;
10212;SDS011;5150;51.400;6.692;2022-08-19T07:33:17;25.67;;;21.17;;
10212;SDS011;5150;51.400;6.692;2022-08-19T07:36:40;23.98;;;19.83;;
10212;SDS011;5150;51.400;6.692;2022-08-19T07:40:06;24.08;;;18.00;;
10212;SDS011;5150;51.400;6.692;2022-08-19T07:43:30;20.63;;;17.08;;
10212;SDS011;5150;51.400;6.692;2022-08-19T07:46:55;22.00;;;19.27;;
10212;SDS011;5150;51.400;6.692;2022-08-19T07:50:21;19.38;;;16.17;;
10212;SDS011;5150;51.400;6.692;2022-08-19T07:53:44;18.33;;;16.33;;
10212;SDS011;5150;51.400;6.692;2022-08-19T07:57:09;22.55;;;16.65;;
10212;SDS011;5150;51.400;6.692;2022-08-19T08:00:33;18.05;;;15.43;;
10212;SDS011;5150;51.400;6.692;2022-08-19T08:03:57;19.27;;;17.23;;
10212;SDS011;5150;51.400;6.692;2022-08-19T08:07:38;18.17;;;16.38;;
10212;SDS011;5150;51.400;6.692;2022-08-19T08:11:19;16.20;;;14.50;;
10212;SDS011;5150;51.400;6.692;2022-08-19T08:14:46;18.50;;;14.63;;
10212;SDS011;5150;51.400;6.692;2022-08-19T08:18:16;16.50;;;14.85;;
10212;SDS011;5150;51.400;6.692;2022-08-19T08:21:40;18.33;;;16.52;;
10212;SDS011;5150;51.400;6.692;2022-08-19T08:25:03;21.60;;;19.20;;
10212;SDS011;5150;51.400;6.692;2022-08-19T08:28:29;23.05;;;19.98;;
10212;SDS011;5150;51.400;6.692;2022-08-19T08:31:53;21.15;;;19.05;;
10212;SDS011;5150;51.400;6.692;2022-08-19T08:35:21;20.35;;;18.15;;
10212;SDS011;5150;51.400;6.692;2022-08-19T08:38:46;25.10;;;20.30;;
10212;SDS011;5150;51.400;6.692;2022-08-19T08:42:11;27.73;;;22.85;;
10212;SDS011;5150;51.400;6.692;2022-08-19T08:45:41;26.17;;;22.52;;
10212;SDS011;5150;51.400;6.692;2022-08-19T08:49:19;22.20;;;19.38;;
10212;SDS011;5150;51.400;6.692;2022-08-19T08:52:50;22.40;;;20.00;;
10212;SDS011;5150;51.400;6.692;2022-08-19T08:56:16;18.17;;;16.30;;
10212;SDS011;5150;51.400;6.692;2022-08-19T08:59:40;17.05;;;15.45;;
10212;SDS011;5150;51.400;6.692;2022-08-19T09:03:06;19.27;;;17.23;;
10212;SDS011;5150;51.400;6.692;2022-08-19T09:06:51;17.92;;;16.02;;
10212;SDS011;5150;51.400;6.692;2022-08-19T09:10:44;14.65;;;13.30;;
10212;SDS011;5150;51.400;6.692;2022-08-19T09:14:19;20.95;;;18.65;;
10212;SDS011;5150;51.400;6.692;2022-08-19T09:18:10;19.65;;;17.48;;
10212;SDS011;5150;51.400;6.692;2022-08-19T09:21:40;19.85;;;17.98;;
10212;SDS011;5150;51.400;6.692;2022-08-19T09:25:04;20.85;;;18.73;;
10212;SDS011;5150;51.400;6.692;2022-08-19T09:28:28;20.88;;;18.70;;
10212;SDS011;5150;51.400;6.692;2022-08-19T09:31:52;15.35;;;13.77;;
10212;SDS011;5150;51.400;6.692;2022-08-19T09:35:16;14.88;;;13.15;;
10212;SDS011;5150;51.400;6.692;2022-08-19T09:38:40;16.58;;;14.60;;
10212;SDS011;5150;51.400;6.692;2022-08-19T09:42:05;23.15;;;18.50;;
10212;SDS011;5150;51.400;6.692;2022-08-19T09:45:50;20.60;;;15.05;;
10212;SDS011;5150;51.400;6.692;2022-08-19T09:49:15;19.05;;;17.10;;
10212;SDS011;5150;51.400;6.692;2022-08-19T09:52:39;18.85;;;17.00;;
10212;SDS011;5150;51.400;6.692;2022-08-19T09:56:17;17.05;;;14.85;;
10212;SDS011;5150;51.400;6.692;2022-08-19T09:59:40;18.55;;;16.45;;
10212;SDS011;5150;51.400;6.692;2022-08-19T10:03:05;14.20;;;12.52;;
10212;SDS011;5150;51.400;6.692;2022-08-19T10:06:29;14.65;;;13.45;;
10212;SDS011;5150;51.400;6.692;2022-08-19T10:10:07;16.30;;;14.65;;
10212;SDS011;5150;51.400;6.692;2022-08-19T10:13:34;16.77;;;14.70;;
10212;SDS011;5150;51.400;6.692;2022-08-19T10:16:57;14.93;;;13.43;;
10212;SDS011;5150;51.400;6.692;2022-08-19T10:20:25;16.23;;;14.70;;
10212;SDS011;5150;51.400;6.692;2022-08-19T10:23:48;15.32;;;13.82;;
10212;SDS011;5150;51.400;6.692;2022-08-19T10:27:13;13.75;;;12.43;;
10212;SDS011;5150;51.400;6.692;2022-08-19T10:30:38;15.10;;;13.60;;
10212;SDS011;5150;51.400;6.692;2022-08-19T10:34:01;14.10;;;12.85;;
10212;SDS011;5150;51.400;6.692;2022-08-19T10:37:25;12.77;;;11.63;;
10212;SDS011;5150;51.400;6.692;2022-08-19T10:40:52;14.48;;;13.18;;
10212;SDS011;5150;51.400;6.692;2022-08-19T10:44:15;13.02;;;11.80;;
10212;SDS011;5150;51.400;6.692;2022-08-19T10:47:40;11.23;;;10.27;;
10212;SDS011;5150;51.400;6.692;2022-08-19T10:51:03;12.77;;;11.55;;
10212;SDS011;5150;51.400;6.692;2022-08-19T10:54:44;13.23;;;12.02;;
10212;SDS011;5150;51.400;6.692;2022-08-19T10:58:30;11.65;;;10.18;;
10212;SDS011;5150;51.400;6.692;2022-08-19T11:01:53;11.50;;;10.60;;
10212;SDS011;5150;51.400;6.692;2022-08-19T11:05:22;11.95;;;10.73;;
10212;SDS011;5150;51.400;6.692;2022-08-19T11:08:45;11.27;;;10.40;;
10212;SDS011;5150;51.400;6.692;2022-08-19T11:12:08;11.93;;;10.90;;
10212;SDS011;5150;51.400;6.692;2022-08-19T11:15:33;11.88;;;10.98;;
10212;SDS011;5150;51.400;6.692;2022-08-19T11:18:57;12.07;;;11.02;;
10212;SDS011;5150;51.400;6.692;2022-08-19T11:22:23;11.25;;;10.32;;
10212;SDS011;5150;51.400;6.692;2022-08-19T11:25:59;11.80;;;10.65;;
10212;SDS011;5150;51.400;6.692;2022-08-19T11:29:22;11.98;;;10.77;;
10212;SDS011;5150;51.400;6.692;2022-08-19T11:32:48;10.00;;;9.15;;
10212;SDS011;5150;51.400;6.692;2022-08-19T11:36:11;11.15;;;10.25;;
10212;SDS011;5150;51.400;6.692;2022-08-19T11:39:37;10.77;;;9.77;;
10212;SDS011;5150;51.400;6.692;2022-08-19T11:43:00;10.95;;;9.95;;
10212;SDS011;5150;51.400;6.692;2022-08-19T11:46:24;9.98;;;9.18;;
10212;SDS011;5150;51.400;6.692;2022-08-19T11:49:50;9.30;;;8.50;;
10212;SDS011;5150;51.400;6.692;2022-08-19T11:53:14;9.32;;;8.45;;
10212;SDS011;5150;51.400;6.692;2022-08-19T11:56:41;9.68;;;8.77;;
10212;SDS011;5150;51.400;6.692;2022-08-19T12:00:04;8.40;;;7.80;;
10212;SDS011;5150;51.400;6.692;2022-08-19T12:03:28;8.85;;;8.13;;
10212;SDS011;5150;51.400;6.692;2022-08-19T12:06:52;8.93;;;8.20;;
10212;SDS011;5150;51.400;6.692;2022-08-19T12:10:15;9.10;;;8.13;;
10212;SDS011;5150;51.400;6.692;2022-08-19T12:13:42;8.70;;;8.00;;
10212;SDS011;5150;51.400;6.692;2022-08-19T12:17:06;8.30;;;7.70;;
10212;SDS011;5150;51.400;6.692;2022-08-19T12:20:30;8.00;;;7.40;;
10212;SDS011;5150;51.400;6.692;2022-08-19T12:23:57;8.27;;;7.72;;
10212;SDS011;5150;51.400;6.692;2022-08-19T12:27:22;8.10;;;7.43;;
10212;SDS011;5150;51.400;6.692;2022-08-19T12:31:03;7.30;;;6.70;;
10212;SDS011;5150;51.400;6.692;2022-08-19T12:34:26;7.88;;;7.15;;
10212;SDS011;5150;51.400;6.692;2022-08-19T12:37:52;7.00;;;6.47;;
10212;SDS011;5150;51.400;6.692;2022-08-19T12:41:18;9.30;;;7.20;;
10212;SDS011;5150;51.400;6.692;2022-08-19T12:44:43;9.95;;;7.68;;
10212;SDS011;5150;51.400;6.692;2022-08-19T12:48:08;6.97;;;6.47;;
10212;SDS011;5150;51.400;6.692;2022-08-19T12:51:51;10.25;;;7.35;;
10212;SDS011;5150;51.400;6.692;2022-08-19T12:55:14;6.75;;;5.97;;
10212;SDS011;5150;51.400;6.692;2022-08-19T12:58:39;7.68;;;6.38;;
10212;SDS011;5150;51.400;6.692;2022-08-19T13:02:10;6.32;;;5.93;;
10212;SDS011;5150;51.400;6.692;2022-08-19T13:05:35;5.88;;;5.47;;
10212;SDS011;5150;51.400;6.692;2022-08-19T13:08:58;6.78;;;6.18;;
10212;SDS011;5150;51.400;6.692;2022-08-19T13:12:21;7.15;;;6.50;;
10212;SDS011;5150;51.400;6.692;2022-08-19T13:15:47;5.90;;;5.40;;
10212;SDS011;5150;51.400;6.692;2022-08-19T13:19:10;6.03;;;5.60;;
10212;SDS011;5150;51.400;6.692;2022-08-19T13:22:36;6.35;;;5.95;;
10212;SDS011;5150;51.400;6.692;2022-08-19T13:26:00;6.60;;;6.10;;
10212;SDS011;5150;51.400;6.692;2022-08-19T13:29:24;6.43;;;5.93;;
10212;SDS011;5150;51.400;6.692;2022-08-19T13:33:04;6.43;;;5.75;;
10212;SDS011;5150;51.400;6.692;2022-08-19T13:36:36;6.57;;;6.00;;
10212;SDS011;5150;51.400;6.692;2022-08-19T13:40:02;6.30;;;5.80;;
10212;SDS011;5150;51.400;6.692;2022-08-19T13:43:26;5.93;;;5.53;;
10212;SDS011;5150;51.400;6.692;2022-08-19T13:46:50;7.63;;;6.88;;
10212;SDS011;5150;51.400;6.692;2022-08-19T13:50:15;7.75;;;6.88;;
10212;SDS011;5150;51.400;6.692;2022-08-19T13:53:39;7.15;;;6.45;;
10212;SDS011;5150;51.400;6.692;2022-08-19T13:57:10;6.53;;;6.03;;
10212;SDS011;5150;51.400;6.692;2022-08-19T14:00:36;6.35;;;5.60;;
10212;SDS011;5150;51.400;6.692;2022-08-19T14:04:07;8.57;;;5.55;;
10212;SDS011;5150;51.400;6.692;2022-08-19T14:07:30;7.75;;;6.93;;
10212;SDS011;5150;51.400;6.692;2022-08-19T14:10:53;7.10;;;6.43;;
10212;SDS011;5150;51.400;6.692;2022-08-19T14:14:18;6.32;;;5.75;;
10212;SDS011;5150;51.400;6.692;2022-08-19T14:17:41;6.68;;;6.03;;
10212;SDS011;5150;51.400;6.692;2022-08-19T14:21:07;7.43;;;6.13;;
10212;SDS011;5150;51.400;6.692;2022-08-19T14:24:36;5.80;;;5.30;;
10212;SDS011;5150;51.400;6.692;2022-08-19T14:28:08;7.35;;;6.10;;
10212;SDS011;5150;51.400;6.692;2022-08-19T14:31:32;5.75;;;5.35;;
10212;SDS011;5150;51.400;6.692;2022-08-19T14:34:55;6.20;;;5.53;;
10212;SDS011;5150;51.400;6.692;2022-08-19T14:38:18;7.32;;;6.47;;
10212;SDS011;5150;51.400;6.692;2022-08-19T14:41:52;6.90;;;6.35;;
10212;SDS011;5150;51.400;6.692;2022-08-19T14:45:15;6.00;;;5.50;;
10212;SDS011;5150;51.400;6.692;2022-08-19T14:48:39;6.20;;;5.60;;
10212;SDS011;5150;51.400;6.692;2022-08-19T14:52:02;5.50;;;5.00;;
10212;SDS011;5150;51.400;6.692;2022-08-19T14:55:26;5.97;;;5.43;;
10212;SDS011;5150;51.400;6.692;2022-08-19T14:58:49;6.28;;;5.68;;
10212;SDS011;5150;51.400;6.692;2022-08-19T15:02:12;6.47;;;5.88;;
10212;SDS011;5150;51.400;6.692;2022-08-19T15:05:57;6.38;;;5.78;;
10212;SDS011;5150;51.400;6.692;2022-08-19T15:09:21;6.65;;;6.05;;
10212;SDS011;5150;51.400;6.692;2022-08-19T15:12:44;6.05;;;5.45;;
10212;SDS011;5150;51.400;6.692;2022-08-19T15:16:12;6.88;;;6.28;;
10212;SDS011;5150;51.400;6.692;2022-08-19T15:19:38;7.53;;;6.78;;
10212;SDS011;5150;51.400;6.692;2022-08-19T15:23:03;6.22;;;5.82;;
10212;SDS011;5150;51.400;6.692;2022-08-19T15:26:26;5.50;;;5.13;;
10212;SDS011;5150;51.400;6.692;2022-08-19T15:29:53;6.90;;;5.47;;
10212;SDS011;5150;51.400;6.692;2022-08-19T15:33:22;6.05;;;5.65;;
10212;SDS011;5150;51.400;6.692;2022-08-19T15:36:45;5.95;;;5.30;;
10212;SDS011;5150;51.400;6.692;2022-08-19T15:40:09;6.63;;;5.68;;
10212;SDS011;5150;51.400;6.692;2022-08-19T15:43:33;6.07;;;5.63;;
10212;SDS011;5150;51.400;6.692;2022-08-19T15:47:03;6.88;;;6.28;;
10212;SDS011;5150;51.400;6.692;2022-08-19T15:50:27;5.60;;;5.20;;
10212;SDS011;5150;51.400;6.692;2022-08-19T15:53:52;5.70;;;5.20;;
10212;SDS011;5150;51.400;6.692;2022-08-19T15:57:17;5.60;;;5.20;;
10212;SDS011;5150;51.400;6.692;2022-08-19T16:01:11;6.70;;;6.10;;
10212;SDS011;5150;51.400;6.692;2022-08-19T16:04:58;5.97;;;5.57;;
10212;SDS011;5150;51.400;6.692;2022-08-19T16:08:38;6.30;;;5.80;;
10212;SDS011;5150;51.400;6.692;2022-08-19T16:12:09;6.25;;;5.75;;
10212;SDS011;5150;51.400;6.692;2022-08-19T16:15:34;5.80;;;5.30;;
10212;SDS011;5150;51.400;6.692;2022-08-19T16:18:57;5.43;;;5.13;;
10212;SDS011;5150;51.400;6.692;2022-08-19T16:22:26;5.47;;;4.97;;
10212;SDS011;5150;51.400;6.692;2022-08-19T16:25:50;6.45;;;5.80;;
10212;SDS011;5150;51.400;6.692;2022-08-19T16:29:14;5.40;;;4.97;;
10212;SDS011;5150;51.400;6.692;2022-08-19T16:32:56;7.75;;;7.05;;
10212;SDS011;5150;51.400;6.692;2022-08-19T16:36:19;5.95;;;5.43;;
10212;SDS011;5150;51.400;6.692;2022-08-19T16:39:44;7.05;;;5.68;;
10212;SDS011;5150;51.400;6.692;2022-08-19T16:43:07;6.32;;;5.78;;
10212;SDS011;5150;51.400;6.692;2022-08-19T16:46:30;5.60;;;5.20;;
10212;SDS011;5150;51.400;6.692;2022-08-19T16:49:55;5.65;;;5.28;;
10212;SDS011;5150;51.400;6.692;2022-08-19T16:53:18;5.35;;;4.95;;
10212;SDS011;5150;51.400;6.692;2022-08-19T16:56:43;5.85;;;5.35;;
10212;SDS011;5150;51.400;6.692;2022-08-19T17:00:08;5.72;;;5.32;;
10212;SDS011;5150;51.400;6.692;2022-08-19T17:03:33;5.18;;;4.78;;
10212;SDS011;5150;51.400;6.692;2022-08-19T17:06:59;5.63;;;5.22;;
10212;SDS011;5150;51.400;6.692;2022-08-19T17:10:22;6.15;;;5.32;;
10212;SDS011;5150;51.400;6.692;2022-08-19T17:13:45;5.63;;;5.15;;
10212;SDS011;5150;51.400;6.692;2022-08-19T17:17:08;5.70;;;5.20;;
10212;SDS011;5150;51.400;6.692;2022-08-19T17:20:33;6.15;;;5.68;;
10212;SDS011;5150;51.400;6.692;2022-08-19T17:23:58;6.88;;;4.95;;
10212;SDS011;5150;51.400;6.692;2022-08-19T17:27:21;5.68;;;5.20;;
10212;SDS011;5150;51.400;6.692;2022-08-19T17:30:45;6.03;;;5.47;;
10212;SDS011;5150;51.400;6.692;2022-08-19T17:34:09;7.88;;;6.10;;
10212;SDS011;5150;51.400;6.692;2022-08-19T17:37:33;9.55;;;6.15;;
10212;SDS011;5150;51.400;6.692;2022-08-19T17:40:58;14.00;;;6.93;;
10212;SDS011;5150;51.400;6.692;2022-08-19T17:44:25;7.65;;;6.82;;
10212;SDS011;5150;51.400;6.692;2022-08-19T17:47:48;8.70;;;5.68;;
10212;SDS011;5150;51.400;6.692;2022-08-19T17:51:12;8.00;;;6.03;;
10212;SDS011;5150;51.400;6.692;2022-08-19T17:54:36;7.43;;;6.22;;
10212;SDS011;5150;51.400;6.692;2022-08-19T17:58:01;8.07;;;6.28;;
10212;SDS011;5150;51.400;6.692;2022-08-19T18:01:28;7.97;;;6.43;;
10212;SDS011;5150;51.400;6.692;2022-08-19T18:05:11;7.97;;;6.70;;
10212;SDS011;5150;51.400;6.692;2022-08-19T18:08:35;10.85;;;6.70;;
10212;SDS011;5150;51.400;6.692;2022-08-19T18:11:59;13.93;;;7.13;;
10212;SDS011;5150;51.400;6.692;2022-08-19T18:15:25;8.35;;;7.53;;
10212;SDS011;5150;51.400;6.692;2022-08-19T18:18:48;10.40;;;7.22;;
10212;SDS011;5150;51.400;6.692;2022-08-19T18:22:19;13.05;;;7.47;;
10212;SDS011;5150;51.400;6.692;2022-08-19T18:25:44;10.40;;;6.93;;
10212;SDS011;5150;51.400;6.692;2022-08-19T18:29:07;10.27;;;7.45;;
10212;SDS011;5150;51.400;6.692;2022-08-19T18:32:32;10.15;;;6.47;;
10212;SDS011;5150;51.400;6.692;2022-08-19T18:35:58;9.98;;;8.30;;
10212;SDS011;5150;51.400;6.692;2022-08-19T18:39:21;12.60;;;8.20;;
10212;SDS011;5150;51.400;6.692;2022-08-19T18:43:05;10.65;;;8.25;;
10212;SDS011;5150;51.400;6.692;2022-08-19T18:46:46;8.98;;;6.63;;
10212;SDS011;5150;51.400;6.692;2022-08-19T18:50:28;12.27;;;7.07;;
10212;SDS011;5150;51.400;6.692;2022-08-19T18:53:51;18.85;;;7.72;;
10212;SDS011;5150;51.400;6.692;2022-08-19T18:57:15;12.05;;;7.88;;
10212;SDS011;5150;51.400;6.692;2022-08-19T19:00:46;11.25;;;7.78;;
10212;SDS011;5150;51.400;6.692;2022-08-19T19:04:09;8.43;;;6.28;;
10212;SDS011;5150;51.400;6.692;2022-08-19T19:07:34;7.35;;;6.28;;
10212;SDS011;5150;51.400;6.692;2022-08-19T19:10:57;7.47;;;4.88;;
10212;SDS011;5150;51.400;6.692;2022-08-19T19:14:27;7.00;;;5.57;;
10212;SDS011;5150;51.400;6.692;2022-08-19T19:18:09;5.50;;;5.00;;
10212;SDS011;5150;51.400;6.692;2022-08-19T19:21:34;6.32;;;5.75;;
10212;SDS011;5150;51.400;6.692;2022-08-19T19:24:59;6.80;;;5.50;;
10212;SDS011;5150;51.400;6.692;2022-08-19T19:28:22;5.88;;;5.35;;
10212;SDS011;5150;51.400;6.692;2022-08-19T19:31:48;6.40;;;5.78;;
10212;SDS011;5150;51.400;6.692;2022-08-19T19:35:13;6.70;;;5.50;;
10212;SDS011;5150;51.400;6.692;2022-08-19T19:38:36;7.07;;;6.47;;
10212;SDS011;5150;51.400;6.692;2022-08-19T19:42:00;6.60;;;5.97;;
10212;SDS011;5150;51.400;6.692;2022-08-19T19:45:33;6.72;;;6.13;;
10212;SDS011;5150;51.400;6.692;2022-08-19T19:48:57;8.20;;;7.40;;
10212;SDS011;5150;51.400;6.692;2022-08-19T19:52:21;8.48;;;7.53;;
10212;SDS011;5150;51.400;6.692;2022-08-19T19:55:45;9.45;;;7.05;;
10212;SDS011;5150;51.400;6.692;2022-08-19T19:59:10;8.38;;;7.57;;
10212;SDS011;5150;51.400;6.692;2022-08-19T20:02:33;9.10;;;8.07;;
10212;SDS011;5150;51.400;6.692;2022-08-19T20:05:56;8.85;;;7.90;;
10212;SDS011;5150;51.400;6.692;2022-08-19T20:09:20;8.02;;;7.25;;
10212;SDS011;5150;51.400;6.692;2022-08-19T20:13:05;8.10;;;7.30;;
10212;SDS011;5150;51.400;6.692;2022-08-19T20:16:30;7.68;;;7.07;;
10212;SDS011;5150;51.400;6.692;2022-08-19T20:19:53;7.60;;;6.90;;
10212;SDS011;5150;51.400;6.692;2022-08-19T20:23:18;7.63;;;6.93;;
10212;SDS011;5150;51.400;6.692;2022-08-19T20:26:42;8.80;;;6.88;;
10212;SDS011;5150;51.400;6.692;2022-08-19T20:30:12;5.97;;;5.47;;
10212;SDS011;5150;51.400;6.692;2022-08-19T20:33:41;8.45;;;7.45;;
10212;SDS011;5150;51.400;6.692;2022-08-19T20:37:04;10.00;;;6.43;;
10212;SDS011;5150;51.400;6.692;2022-08-19T20:40:29;10.93;;;6.63;;
10212;SDS011;5150;51.400;6.692;2022-08-19T20:43:54;7.70;;;6.43;;
10212;SDS011;5150;51.400;6.692;2022-08-19T20:47:17;6.75;;;6.05;;
10212;SDS011;5150;51.400;6.692;2022-08-19T20:50:42;9.95;;;6.22;;